createdAt,value
2018-05-12T00:00:06.551Z,5.53
2018-05-12T00:02:34.160Z,5.90
2018-05-12T00:05:01.701Z,5.30
2018-05-12T00:07:29.225Z,6.37
2018-05-12T00:09:56.732Z,6.10
2018-05-12T00:12:24.253Z,5.77
2018-05-12T00:14:51.783Z,6.27
2018-05-12T00:17:19.316Z,6.00
2018-05-12T00:19:46.853Z,5.30
2018-05-12T00:22:14.354Z,5.57
2018-05-12T00:24:42.640Z,5.13
2018-05-12T00:27:10.144Z,6.40
2018-05-12T00:29:37.682Z,6.97
2018-05-12T00:32:05.180Z,6.30
2018-05-12T00:34:32.708Z,6.90
2018-05-12T00:37:00.235Z,6.93
2018-05-12T00:39:27.741Z,6.30
2018-05-12T00:41:55.287Z,6.20
2018-05-12T00:44:22.822Z,6.30
2018-05-12T00:46:50.327Z,5.73
2018-05-12T00:49:17.843Z,5.57
2018-05-12T00:51:45.373Z,6.13
2018-05-12T00:54:13.685Z,7.33
2018-05-12T00:56:41.196Z,6.30
2018-05-12T00:59:09.486Z,6.47
2018-05-12T01:01:37.779Z,6.20
2018-05-12T01:04:05.288Z,6.90
2018-05-12T01:06:32.808Z,6.80
2018-05-12T01:09:00.316Z,8.00
2018-05-12T01:11:28.608Z,7.80
2018-05-12T01:13:56.887Z,7.07
2018-05-12T01:16:25.175Z,6.10
2018-05-12T01:18:52.737Z,6.40
2018-05-12T01:21:20.240Z,6.70
2018-05-12T01:23:47.750Z,7.00
2018-05-12T01:26:15.315Z,7.10
2018-05-12T01:28:42.798Z,6.60
2018-05-12T01:31:10.345Z,6.00
2018-05-12T01:33:37.863Z,6.63
2018-05-12T01:36:06.146Z,5.33
2018-05-12T01:38:34.440Z,5.70
2018-05-12T01:41:01.958Z,6.50
2018-05-12T01:43:29.543Z,6.30
2018-05-12T01:45:57.827Z,6.70
2018-05-12T01:48:26.107Z,5.93
2018-05-12T01:50:53.638Z,6.57
2018-05-12T01:53:21.160Z,6.50
2018-05-12T01:55:48.692Z,7.50
2018-05-12T01:58:16.206Z,7.10
2018-05-12T02:00:43.737Z,7.43
2018-05-12T02:03:11.281Z,6.00
2018-05-12T02:05:38.784Z,6.70
2018-05-12T02:08:06.308Z,6.77
2018-05-12T02:10:33.808Z,6.40
2018-05-12T02:13:02.103Z,6.90
2018-05-12T02:15:29.650Z,5.90
2018-05-12T02:17:57.925Z,7.07
2018-05-12T02:20:25.475Z,7.00
2018-05-12T02:22:52.999Z,5.90
2018-05-12T02:25:20.548Z,7.37
2018-05-12T02:27:48.062Z,6.57
2018-05-12T02:30:16.341Z,6.10
2018-05-12T02:32:43.904Z,6.00
2018-05-12T02:35:12.178Z,6.60
2018-05-12T02:37:40.479Z,5.83
2018-05-12T02:40:07.987Z,5.47
2018-05-12T02:42:35.512Z,5.60
2018-05-12T02:45:03.026Z,5.53
2018-05-12T02:47:31.334Z,5.13
2018-05-12T02:49:58.849Z,5.77
2018-05-12T02:52:26.360Z,5.60
2018-05-12T02:54:53.896Z,5.83
2018-05-12T02:57:21.455Z,5.07
2018-05-12T02:59:49.010Z,5.17
2018-05-12T03:02:17.287Z,6.30
2018-05-12T03:04:45.597Z,5.50
2018-05-12T03:07:13.114Z,6.13
2018-05-12T03:09:41.408Z,4.63
2018-05-12T03:12:09.690Z,5.77
2018-05-12T03:14:37.233Z,5.10
2018-05-12T03:17:05.527Z,6.13
2018-05-12T03:19:33.051Z,5.03
2018-05-12T03:22:01.359Z,5.70
2018-05-12T03:24:28.878Z,4.80
2018-05-12T03:26:56.420Z,4.80
2018-05-12T03:29:23.948Z,5.33
2018-05-12T03:31:51.480Z,5.00
2018-05-12T03:34:19.744Z,5.13
2018-05-12T03:36:47.281Z,5.10
2018-05-12T03:39:14.826Z,5.10
2018-05-12T03:41:42.342Z,5.57
2018-05-12T03:44:09.875Z,6.47
2018-05-12T03:46:37.393Z,4.77
2018-05-12T03:49:04.949Z,5.90
2018-05-12T03:51:32.461Z,6.23
2018-05-12T03:54:00.855Z,5.70
2018-05-12T03:56:28.310Z,5.93
2018-05-12T03:58:55.831Z,6.13
2018-05-12T04:01:23.378Z,5.03
2018-05-12T04:03:50.904Z,5.80
2018-05-12T04:06:30.410Z,5.43
2018-05-12T04:09:10.474Z,5.27
2018-05-12T04:11:50.713Z,5.77
2018-05-12T04:14:19.116Z,5.10
2018-05-12T04:16:46.628Z,4.80
2018-05-12T04:19:14.138Z,5.30
2018-05-12T04:21:41.669Z,4.63
2018-05-12T04:24:09.169Z,5.93
2018-05-12T04:26:36.720Z,4.97
2018-05-12T04:29:04.229Z,4.97
2018-05-12T04:31:31.768Z,4.67
2018-05-12T04:33:59.290Z,4.20
2018-05-12T04:36:26.801Z,4.50
2018-05-12T04:38:54.321Z,4.50
2018-05-12T04:41:21.839Z,4.40
2018-05-12T04:43:49.361Z,4.70
2018-05-12T04:46:16.906Z,4.60
2018-05-12T04:48:44.440Z,4.40
2018-05-12T04:51:11.966Z,5.80
2018-05-12T04:53:39.485Z,4.67
2018-05-12T04:56:07.027Z,5.37
2018-05-12T04:58:34.533Z,5.23
2018-05-12T05:01:02.084Z,4.70
2018-05-12T05:03:29.589Z,4.83
2018-05-12T05:05:57.144Z,4.83
2018-05-12T05:08:25.417Z,4.40
2018-05-12T05:10:53.701Z,4.60
2018-05-12T05:13:21.251Z,5.20
2018-05-12T05:15:48.791Z,5.17
2018-05-12T05:18:16.319Z,5.90
2018-05-12T05:20:43.836Z,5.33
2018-05-12T05:23:12.141Z,6.23
2018-05-12T05:25:39.654Z,4.50
2018-05-12T05:28:07.973Z,4.70
2018-05-12T05:30:35.485Z,4.57
2018-05-12T05:33:03.013Z,4.53
2018-05-12T05:35:30.534Z,4.87
2018-05-12T05:37:58.052Z,4.77
2018-05-12T05:40:25.569Z,4.67
2018-05-12T05:42:53.165Z,5.07
2018-05-12T05:45:20.689Z,4.50
2018-05-12T05:47:48.224Z,4.30
2018-05-12T05:50:15.916Z,3.93
2018-05-12T05:52:43.375Z,3.60
2018-05-12T05:55:10.918Z,3.40
2018-05-12T05:57:38.449Z,3.83
2018-05-12T06:00:06.758Z,4.63
2018-05-12T06:02:34.264Z,3.70
2018-05-12T06:05:01.795Z,3.93
2018-05-12T06:07:29.317Z,3.70
2018-05-12T06:09:56.820Z,4.00
2018-05-12T06:12:24.335Z,3.80
2018-05-12T06:14:51.841Z,3.50
2018-05-12T06:17:19.362Z,4.30
2018-05-12T06:19:46.918Z,3.80
2018-05-12T06:22:14.440Z,3.10
2018-05-12T06:24:41.966Z,3.40
2018-05-12T06:27:09.522Z,2.80
2018-05-12T06:29:37.042Z,3.00
2018-05-12T06:32:04.557Z,2.83
2018-05-12T06:34:32.102Z,3.30
2018-05-12T06:36:59.617Z,2.87
2018-05-12T06:39:27.165Z,3.00
2018-05-12T06:41:55.429Z,2.77
2018-05-12T06:44:23.733Z,2.43
2018-05-12T06:46:51.263Z,2.57
2018-05-12T06:49:18.786Z,2.43
2018-05-12T06:51:46.296Z,2.83
2018-05-12T06:54:14.580Z,2.40
2018-05-12T06:56:42.874Z,2.17
2018-05-12T06:59:10.387Z,2.10
2018-05-12T07:01:37.917Z,2.30
2018-05-12T07:04:06.182Z,1.97
2018-05-12T07:06:33.710Z,2.13
2018-05-12T07:09:02.015Z,2.33
2018-05-12T07:11:29.541Z,2.10
2018-05-12T07:13:57.824Z,2.00
2018-05-12T07:16:25.340Z,1.83
2018-05-12T07:18:52.870Z,1.87
2018-05-12T07:21:20.367Z,2.17
2018-05-12T07:23:48.099Z,2.00
2018-05-12T07:26:16.545Z,1.90
2018-05-12T07:28:44.076Z,2.17
2018-05-12T07:31:12.374Z,1.83
2018-05-12T07:33:40.675Z,1.87
2018-05-12T07:36:08.222Z,1.67
2018-05-12T07:38:35.754Z,1.93
2018-05-12T07:41:04.023Z,1.50
2018-05-12T07:43:31.557Z,1.30
2018-05-12T07:45:59.060Z,1.67
2018-05-12T07:48:27.359Z,2.10
2018-05-12T07:50:54.901Z,1.40
2018-05-12T07:53:23.187Z,1.70
2018-05-12T07:55:50.723Z,1.80
2018-05-12T07:58:18.253Z,1.90
2018-05-12T08:00:45.780Z,1.83
2018-05-12T08:03:13.312Z,2.03
2018-05-12T08:05:41.615Z,1.60
2018-05-12T08:08:09.131Z,2.20
2018-05-12T08:10:37.418Z,1.77
2018-05-12T08:13:05.711Z,3.17
2018-05-12T08:15:33.252Z,1.90
2018-05-12T08:18:01.532Z,1.60
2018-05-12T08:20:29.810Z,2.37
2018-05-12T08:22:58.141Z,2.73
2018-05-12T08:25:25.645Z,2.90
2018-05-12T08:27:53.950Z,1.87
2018-05-12T08:30:21.463Z,1.90
2018-05-12T08:32:49.742Z,2.70
2018-05-12T08:35:18.057Z,2.37
2018-05-12T08:37:46.298Z,1.73
2018-05-12T08:40:14.582Z,2.70
2018-05-12T08:42:42.934Z,2.23
2018-05-12T08:45:10.393Z,4.30
2018-05-12T08:47:37.899Z,4.50
2018-05-12T08:50:05.456Z,4.27
2018-05-12T08:52:32.971Z,3.90
2018-05-12T08:55:00.494Z,2.87
2018-05-12T08:57:28.029Z,2.87
2018-05-12T08:59:55.532Z,2.70
2018-05-12T09:02:23.058Z,3.13
2018-05-12T09:04:50.582Z,4.10
2018-05-12T09:07:18.998Z,3.70
2018-05-12T09:09:46.399Z,4.00
2018-05-12T09:12:13.913Z,3.03
2018-05-12T09:14:41.415Z,3.20
2018-05-12T09:17:08.947Z,3.10
2018-05-12T09:19:37.450Z,3.47
2018-05-12T09:22:04.967Z,3.40
2018-05-12T09:24:32.486Z,2.67
2018-05-12T09:27:00.768Z,2.90
2018-05-12T09:29:29.057Z,2.33
2018-05-12T09:31:56.558Z,2.47
2018-05-12T09:34:24.101Z,3.10
2018-05-12T09:36:51.601Z,2.40
2018-05-12T09:39:19.146Z,2.53
2018-05-12T09:41:46.662Z,3.87
2018-05-12T09:44:14.201Z,2.40
2018-05-12T09:46:42.465Z,2.23
2018-05-12T09:49:10.749Z,3.47
2018-05-12T09:51:39.058Z,2.30
2018-05-12T09:54:06.596Z,2.73
2018-05-12T09:56:34.887Z,3.63
2018-05-12T09:59:02.397Z,3.00
2018-05-12T10:01:29.914Z,2.77
2018-05-12T10:03:57.427Z,2.67
2018-05-12T10:06:24.988Z,2.87
2018-05-12T10:08:53.259Z,2.20
2018-05-12T10:11:20.767Z,2.90
2018-05-12T10:13:48.289Z,3.20
2018-05-12T10:16:16.570Z,2.83
2018-05-12T10:18:44.881Z,2.80
2018-05-12T10:21:12.388Z,2.53
2018-05-12T10:23:40.702Z,3.20
2018-05-12T10:26:08.264Z,2.77
2018-05-12T10:28:36.535Z,3.20
2018-05-12T10:31:04.052Z,2.20
2018-05-12T10:33:31.591Z,3.50
2018-05-12T10:35:59.102Z,2.03
2018-05-12T10:38:26.637Z,1.87
2018-05-12T10:40:54.158Z,2.50
2018-05-12T10:43:21.674Z,2.30
2018-05-12T10:45:49.982Z,2.50
2018-05-12T10:48:17.483Z,2.40
2018-05-12T10:50:44.994Z,3.60
2018-05-12T10:53:12.496Z,2.13
2018-05-12T10:55:40.033Z,2.33
2018-05-12T10:58:07.543Z,3.40
2018-05-12T11:00:35.822Z,3.20
2018-05-12T11:03:03.355Z,2.70
2018-05-12T11:05:30.868Z,2.80
2018-05-12T11:07:58.388Z,3.17
2018-05-12T11:10:26.667Z,2.40
2018-05-12T11:12:54.952Z,2.70
2018-05-12T11:15:22.483Z,2.83
2018-05-12T11:17:50.022Z,3.00
2018-05-12T11:20:17.634Z,2.40
2018-05-12T11:22:45.093Z,2.30
2018-05-12T11:25:12.595Z,2.30
2018-05-12T11:27:40.111Z,2.53
2018-05-12T11:30:07.652Z,2.93
2018-05-12T11:32:35.918Z,2.03
2018-05-12T11:35:04.200Z,2.50
2018-05-12T11:37:32.485Z,2.70
2018-05-12T11:40:00.767Z,2.80
2018-05-12T11:42:28.356Z,2.57
2018-05-12T11:44:55.895Z,2.50
2018-05-12T11:47:23.411Z,3.03
2018-05-12T11:49:50.948Z,2.10
2018-05-12T11:52:18.477Z,2.33
2018-05-12T11:54:45.983Z,2.90
2018-05-12T11:57:13.497Z,2.10
2018-05-12T11:59:41.011Z,2.37
2018-05-12T12:02:09.318Z,2.27
2018-05-12T12:04:36.841Z,2.43
2018-05-12T12:07:04.379Z,2.07
2018-05-12T12:09:31.891Z,1.60
2018-05-12T12:11:59.431Z,1.20
2018-05-12T12:14:27.721Z,1.97
2018-05-12T12:16:56.000Z,1.97
2018-05-12T12:19:24.288Z,1.90
2018-05-12T12:21:51.819Z,1.80
2018-05-12T12:24:20.117Z,1.33
2018-05-12T12:26:48.423Z,1.57
2018-05-12T12:29:15.961Z,1.50
2018-05-12T12:31:43.480Z,1.70
2018-05-12T12:34:11.013Z,1.80
2018-05-12T12:36:38.539Z,2.60
2018-05-12T12:39:06.037Z,2.53
2018-05-12T12:41:33.587Z,1.53
2018-05-12T12:44:01.097Z,2.17
2018-05-12T12:46:28.662Z,1.67
2018-05-12T12:48:56.966Z,1.83
2018-05-12T12:51:24.503Z,1.30
2018-05-12T12:53:52.000Z,2.10
2018-05-12T12:56:19.552Z,2.60
2018-05-12T12:58:47.053Z,2.40
2018-05-12T13:01:14.578Z,2.27
2018-05-12T13:03:42.120Z,2.33
2018-05-12T13:06:09.617Z,2.20
2018-05-12T13:08:37.149Z,2.30
2018-05-12T13:11:04.652Z,2.90
2018-05-12T13:13:32.945Z,2.50
2018-05-12T13:16:00.471Z,2.50
2018-05-12T13:18:28.798Z,2.40
2018-05-12T13:20:56.305Z,3.50
2018-05-12T13:23:23.845Z,3.00
2018-05-12T13:25:51.348Z,2.40
2018-05-12T13:28:20.602Z,2.00
2018-05-12T13:30:48.134Z,2.07
2018-05-12T13:33:15.637Z,2.00
2018-05-12T13:35:43.168Z,2.70
2018-05-12T13:38:10.692Z,2.00
2018-05-12T13:40:38.216Z,1.90
2018-05-12T13:43:05.715Z,2.00
2018-05-12T13:45:33.261Z,2.07
2018-05-12T13:48:00.829Z,1.83
2018-05-12T13:50:28.372Z,2.13
2018-05-12T13:52:56.653Z,2.20
2018-05-12T13:55:24.916Z,2.23
2018-05-12T13:57:53.224Z,2.20
2018-05-12T14:00:20.746Z,2.23
2018-05-12T14:02:48.266Z,1.67
2018-05-12T14:05:15.772Z,2.10
2018-05-12T14:07:44.129Z,1.97
2018-05-12T14:10:11.592Z,1.57
2018-05-12T14:12:39.115Z,2.07
2018-05-12T14:15:06.618Z,1.90
2018-05-12T14:17:34.123Z,1.70
2018-05-12T14:20:01.664Z,1.87
2018-05-12T14:22:29.186Z,1.77
2018-05-12T14:24:56.726Z,2.40
2018-05-12T14:27:24.246Z,1.50
2018-05-12T14:29:51.763Z,2.00
2018-05-12T14:32:20.071Z,1.90
2018-05-12T14:34:48.377Z,1.80
2018-05-12T14:37:15.893Z,1.97
2018-05-12T14:39:43.447Z,1.37
2018-05-12T14:42:11.713Z,1.93
2018-05-12T14:44:40.078Z,2.37
2018-05-12T14:47:07.671Z,1.70
2018-05-12T14:49:35.937Z,2.00
2018-05-12T14:52:04.222Z,1.50
2018-05-12T14:54:31.746Z,1.80
2018-05-12T14:56:59.277Z,3.00
2018-05-12T14:59:26.821Z,1.37
2018-05-12T15:01:54.365Z,1.90
2018-05-12T15:04:22.633Z,2.47
2018-05-12T15:06:50.914Z,2.33
2018-05-12T15:09:19.206Z,2.53
2018-05-12T15:11:46.749Z,2.10
2018-05-12T15:14:15.032Z,2.53
2018-05-12T15:16:42.552Z,2.77
2018-05-12T15:19:10.089Z,2.60
2018-05-12T15:21:37.603Z,2.60
2018-05-12T15:24:05.880Z,2.60
2018-05-12T15:26:34.166Z,2.50
2018-05-12T15:29:01.734Z,2.27
2018-05-12T15:31:29.237Z,2.07
2018-05-12T15:33:56.740Z,2.37
2018-05-12T15:36:24.287Z,2.50
2018-05-12T15:38:52.593Z,2.23
2018-05-12T15:41:20.127Z,2.40
2018-05-12T15:43:48.494Z,2.23
2018-05-12T15:46:15.952Z,2.30
2018-05-12T15:48:44.224Z,2.87
2018-05-12T15:51:11.796Z,2.80
2018-05-12T15:53:40.077Z,2.77
2018-05-12T15:56:07.615Z,2.20
2018-05-12T15:58:35.152Z,2.40
2018-05-12T16:01:02.673Z,2.20
2018-05-12T16:03:30.188Z,2.70
2018-05-12T16:05:57.750Z,2.80
2018-05-12T16:08:25.260Z,2.50
2018-05-12T16:10:52.784Z,2.70
2018-05-12T16:13:21.081Z,2.20
2018-05-12T16:15:48.585Z,2.10
2018-05-12T16:18:16.125Z,2.50
2018-05-12T16:20:43.631Z,2.00
2018-05-12T16:23:11.908Z,2.37
2018-05-12T16:25:40.249Z,2.53
2018-05-12T16:28:07.797Z,2.00
2018-05-12T16:30:35.316Z,1.83
2018-05-12T16:33:02.836Z,2.63
2018-05-12T16:35:30.361Z,2.17
2018-05-12T16:37:57.864Z,2.23
2018-05-12T16:40:25.398Z,2.23
2018-05-12T16:42:52.919Z,2.00
2018-05-12T16:45:20.435Z,2.50
2018-05-12T16:47:47.952Z,2.10
2018-05-12T16:50:15.456Z,2.20
2018-05-12T16:52:42.982Z,2.37
2018-05-12T16:55:10.502Z,2.30
2018-05-12T16:57:38.020Z,2.27
2018-05-12T17:00:05.534Z,2.03
2018-05-12T17:02:33.118Z,2.40
2018-05-12T17:05:01.432Z,2.43
2018-05-12T17:07:28.975Z,2.27
2018-05-12T17:09:56.480Z,2.80
2018-05-12T17:12:24.098Z,2.37
2018-05-12T17:14:52.306Z,2.80
2018-05-12T17:17:20.607Z,2.20
2018-05-12T17:19:48.109Z,2.43
2018-05-12T17:22:15.604Z,2.63
2018-05-12T17:24:43.161Z,2.63
2018-05-12T17:27:10.678Z,2.97
2018-05-12T17:29:38.207Z,3.10
2018-05-12T17:32:05.718Z,2.97
2018-05-12T17:34:34.004Z,3.07
2018-05-12T17:37:02.282Z,2.73
2018-05-12T17:39:30.581Z,2.80
2018-05-12T17:41:58.091Z,2.77
2018-05-12T17:44:25.625Z,2.20
2018-05-12T17:46:53.141Z,2.73
2018-05-12T17:49:20.647Z,2.10
2018-05-12T17:51:48.178Z,2.50
2018-05-12T17:54:15.701Z,3.03
2018-05-12T17:56:43.998Z,2.47
2018-05-12T17:59:11.525Z,2.43
2018-05-12T18:01:39.019Z,2.90
2018-05-12T18:04:07.318Z,2.40
2018-05-12T18:06:34.812Z,2.40
2018-05-12T18:09:02.348Z,2.57
2018-05-12T18:11:29.908Z,2.90
2018-05-12T18:13:57.413Z,2.50
2018-05-12T18:16:25.694Z,2.77
2018-05-12T18:18:53.993Z,2.77
2018-05-12T18:21:21.521Z,2.23
2018-05-12T18:23:49.789Z,2.70
2018-05-12T18:26:18.091Z,3.00
2018-05-12T18:28:45.620Z,2.40
2018-05-12T18:31:13.140Z,2.33
2018-05-12T18:33:40.667Z,2.80
2018-05-12T18:36:08.183Z,3.10
2018-05-12T18:38:35.707Z,2.57
2018-05-12T18:41:03.249Z,2.97
2018-05-12T18:43:30.770Z,2.73
2018-05-12T18:45:58.284Z,3.10
2018-05-12T18:48:25.809Z,2.90
2018-05-12T18:50:53.348Z,2.33
2018-05-12T18:53:20.870Z,2.33
2018-05-12T18:55:48.394Z,2.90
2018-05-12T18:58:16.256Z,2.73
2018-05-12T19:00:43.814Z,2.90
2018-05-12T19:03:12.100Z,3.43
2018-05-12T19:05:39.619Z,2.87
2018-05-12T19:08:07.153Z,2.43
2018-05-12T19:10:34.656Z,2.57
2018-05-12T19:13:02.937Z,2.70
2018-05-12T19:15:31.229Z,3.03
2018-05-12T19:17:58.808Z,3.10
2018-05-12T19:20:26.342Z,3.30
2018-05-12T19:22:53.862Z,2.90
2018-05-12T19:25:21.378Z,3.10
2018-05-12T19:27:48.895Z,2.80
2018-05-12T19:30:17.190Z,3.00
2018-05-12T19:32:45.545Z,2.90
2018-05-12T19:35:12.999Z,2.70
2018-05-12T19:37:40.520Z,3.33
2018-05-12T19:40:08.038Z,3.13
2018-05-12T19:42:36.344Z,2.97
2018-05-12T19:45:03.897Z,2.70
2018-05-12T19:47:31.426Z,2.90
2018-05-12T19:49:59.691Z,1.97
2018-05-12T19:52:27.218Z,2.30
2018-05-12T19:54:54.730Z,2.90
2018-05-12T19:57:23.039Z,2.63
2018-05-12T19:59:51.814Z,2.70
2018-05-12T20:02:19.399Z,3.10
2018-05-12T20:04:46.924Z,3.00
2018-05-12T20:07:14.424Z,3.23
2018-05-12T20:09:42.112Z,2.80
2018-05-12T20:12:09.598Z,2.67
2018-05-12T20:14:37.121Z,2.97
2018-05-12T20:17:04.638Z,3.73
2018-05-12T20:19:32.160Z,3.57
2018-05-12T20:22:00.425Z,2.63
2018-05-12T20:24:28.715Z,3.57
2018-05-12T20:26:57.038Z,3.50
2018-05-12T20:29:24.557Z,3.03
2018-05-12T20:31:52.084Z,3.30
2018-05-12T20:34:19.595Z,2.90
2018-05-12T20:36:47.125Z,2.90
2018-05-12T20:39:15.424Z,3.07
2018-05-12T20:41:42.978Z,3.10
2018-05-12T20:44:10.489Z,3.50
2018-05-12T20:46:38.026Z,3.13
2018-05-12T20:49:05.545Z,3.40
2018-05-12T20:51:33.052Z,3.27
2018-05-12T20:54:00.591Z,3.57
2018-05-12T20:56:28.103Z,2.80
2018-05-12T20:58:56.399Z,2.77
2018-05-12T21:01:23.921Z,3.30
2018-05-12T21:03:51.453Z,3.30
2018-05-12T21:06:19.113Z,3.37
2018-05-12T21:08:46.639Z,3.90
2018-05-12T21:11:14.146Z,3.70
2018-05-12T21:13:41.683Z,3.17
2018-05-12T21:16:09.209Z,3.80
2018-05-12T21:18:37.486Z,3.90
2018-05-12T21:21:05.791Z,3.90
2018-05-12T21:23:33.306Z,3.87
2018-05-12T21:26:01.620Z,3.63
2018-05-12T21:28:29.136Z,4.57
2018-05-12T21:30:56.685Z,3.60
2018-05-12T21:33:24.189Z,3.50
2018-05-12T21:35:51.730Z,3.80
2018-05-12T21:38:20.016Z,3.90
2018-05-12T21:40:47.544Z,3.87
2018-05-12T21:43:15.077Z,4.40
2018-05-12T21:45:42.591Z,3.90
2018-05-12T21:48:10.123Z,4.37
2018-05-12T21:50:37.620Z,4.50
2018-05-12T21:53:05.137Z,4.23
2018-05-12T21:55:33.454Z,3.93
2018-05-12T21:58:00.982Z,3.60
2018-05-12T22:00:29.252Z,4.00
2018-05-12T22:02:56.744Z,4.23
2018-05-12T22:05:24.273Z,4.20
2018-05-12T22:07:52.625Z,4.60
2018-05-12T22:10:20.695Z,4.57
2018-05-12T22:12:48.216Z,4.23
2018-05-12T22:15:15.732Z,4.77
2018-05-12T22:17:43.249Z,4.37
2018-05-12T22:20:10.805Z,4.33
2018-05-12T22:22:38.314Z,4.20
2018-05-12T22:25:06.620Z,4.67
2018-05-12T22:27:34.120Z,4.80
2018-05-12T22:30:01.629Z,4.10
2018-05-12T22:32:29.155Z,4.27
2018-05-12T22:34:56.684Z,4.37
2018-05-12T22:37:24.196Z,3.87
2018-05-12T22:39:52.472Z,4.13
2018-05-12T22:42:20.785Z,5.00
2018-05-12T22:44:48.281Z,4.60
2018-05-12T22:47:15.870Z,5.30
2018-05-12T22:49:43.349Z,5.10
2018-05-12T22:52:10.902Z,4.90
2018-05-12T22:54:38.940Z,5.47
2018-05-12T22:57:06.455Z,5.03
2018-05-12T22:59:34.032Z,5.27
2018-05-12T23:02:01.543Z,5.50
2018-05-12T23:04:29.060Z,4.90
2018-05-12T23:06:56.573Z,5.67
2018-05-12T23:09:24.103Z,4.27
2018-05-12T23:11:52.378Z,3.90
2018-05-12T23:14:20.682Z,5.20
2018-05-12T23:16:48.192Z,5.07
2018-05-12T23:19:15.729Z,4.60
2018-05-12T23:21:43.250Z,5.13
2018-05-12T23:24:10.804Z,4.23
2018-05-12T23:26:38.328Z,4.47
2018-05-12T23:29:05.839Z,4.40
2018-05-12T23:31:33.377Z,4.70
2018-05-12T23:34:00.895Z,3.97
2018-05-12T23:36:28.440Z,4.00
2018-05-12T23:38:55.956Z,4.90
2018-05-12T23:41:23.492Z,5.03
2018-05-12T23:43:51.022Z,5.03
2018-05-12T23:46:18.558Z,5.03
2018-05-12T23:48:46.094Z,4.07
2018-05-12T23:51:13.672Z,4.83
2018-05-12T23:53:41.195Z,4.57
2018-05-12T23:56:09.479Z,4.00
2018-05-12T23:58:37.810Z,4.47
